sensor_id;sensor_type;location;lat;lon;timestamp;P1;durP1;ratioP1;P2;durP2;ratioP2
6209;SDS011;3138;52.550;13.148;2022-07-23T00:01:27;14.97;;;9.40;;
6209;SDS011;3138;52.550;13.148;2022-07-23T00:03:55;11.83;;;9.53;;
6209;SDS011;3138;52.550;13.148;2022-07-23T00:06:23;19.30;;;10.10;;
6209;SDS011;3138;52.550;13.148;2022-07-23T00:08:51;19.53;;;9.17;;
6209;SDS011;3138;52.550;13.148;2022-07-23T00:11:18;16.93;;;9.40;;
6209;SDS011;3138;52.550;13.148;2022-07-23T00:13:47;10.80;;;9.70;;
6209;SDS011;3138;52.550;13.148;2022-07-23T00:16:14;11.47;;;9.10;;
6209;SDS011;3138;52.550;13.148;2022-07-23T00:18:41;13.63;;;9.70;;
6209;SDS011;3138;52.550;13.148;2022-07-23T00:21:07;15.20;;;9.20;;
6209;SDS011;3138;52.550;13.148;2022-07-23T00:23:35;13.90;;;9.50;;
6209;SDS011;3138;52.550;13.148;2022-07-23T00:26:02;10.93;;;9.90;;
6209;SDS011;3138;52.550;13.148;2022-07-23T00:28:29;12.60;;;8.80;;
6209;SDS011;3138;52.550;13.148;2022-07-23T00:30:56;12.40;;;10.50;;
6209;SDS011;3138;52.550;13.148;2022-07-23T00:33:23;21.17;;;9.33;;
6209;SDS011;3138;52.550;13.148;2022-07-23T00:35:50;18.60;;;10.43;;
6209;SDS011;3138;52.550;13.148;2022-07-23T00:38:16;13.80;;;10.20;;
6209;SDS011;3138;52.550;13.148;2022-07-23T00:40:45;23.90;;;9.80;;
6209;SDS011;3138;52.550;13.148;2022-07-23T00:43:11;12.93;;;10.23;;
6209;SDS011;3138;52.550;13.148;2022-07-23T00:45:38;13.30;;;9.90;;
6209;SDS011;3138;52.550;13.148;2022-07-23T00:48:06;13.50;;;8.83;;
6209;SDS011;3138;52.550;13.148;2022-07-23T00:50:33;13.80;;;9.83;;
6209;SDS011;3138;52.550;13.148;2022-07-23T00:52:59;16.10;;;10.17;;
6209;SDS011;3138;52.550;13.148;2022-07-23T00:55:26;12.57;;;10.03;;
6209;SDS011;3138;52.550;13.148;2022-07-23T00:57:54;19.20;;;9.50;;
6209;SDS011;3138;52.550;13.148;2022-07-23T01:00:21;26.67;;;11.07;;
6209;SDS011;3138;52.550;13.148;2022-07-23T01:02:48;12.10;;;10.07;;
6209;SDS011;3138;52.550;13.148;2022-07-23T01:05:15;15.63;;;10.90;;
6209;SDS011;3138;52.550;13.148;2022-07-23T01:07:46;14.97;;;11.10;;
6209;SDS011;3138;52.550;13.148;2022-07-23T01:10:13;18.50;;;9.47;;
6209;SDS011;3138;52.550;13.148;2022-07-23T01:13:01;12.83;;;9.47;;
6209;SDS011;3138;52.550;13.148;2022-07-23T01:15:29;12.67;;;9.00;;
6209;SDS011;3138;52.550;13.148;2022-07-23T01:17:56;15.20;;;10.10;;
6209;SDS011;3138;52.550;13.148;2022-07-23T01:20:23;19.60;;;10.67;;
6209;SDS011;3138;52.550;13.148;2022-07-23T01:22:51;15.93;;;11.27;;
6209;SDS011;3138;52.550;13.148;2022-07-23T01:25:18;20.93;;;11.03;;
6209;SDS011;3138;52.550;13.148;2022-07-23T01:27:45;11.23;;;10.00;;
6209;SDS011;3138;52.550;13.148;2022-07-23T01:30:12;23.43;;;10.27;;
6209;SDS011;3138;52.550;13.148;2022-07-23T01:32:39;15.33;;;11.13;;
6209;SDS011;3138;52.550;13.148;2022-07-23T01:35:06;12.07;;;10.87;;
6209;SDS011;3138;52.550;13.148;2022-07-23T01:37:34;16.80;;;12.30;;
6209;SDS011;3138;52.550;13.148;2022-07-23T01:40:02;10.70;;;9.60;;
6209;SDS011;3138;52.550;13.148;2022-07-23T01:42:30;15.17;;;10.27;;
6209;SDS011;3138;52.550;13.148;2022-07-23T01:44:57;38.37;;;11.10;;
6209;SDS011;3138;52.550;13.148;2022-07-23T01:47:24;18.27;;;10.30;;
6209;SDS011;3138;52.550;13.148;2022-07-23T01:49:50;30.13;;;10.60;;
6209;SDS011;3138;52.550;13.148;2022-07-23T01:52:17;22.23;;;10.93;;
6209;SDS011;3138;52.550;13.148;2022-07-23T01:54:44;16.93;;;10.43;;
6209;SDS011;3138;52.550;13.148;2022-07-23T01:57:12;19.87;;;10.80;;
6209;SDS011;3138;52.550;13.148;2022-07-23T01:59:39;12.10;;;10.73;;
6209;SDS011;3138;52.550;13.148;2022-07-23T02:02:06;12.97;;;10.43;;
6209;SDS011;3138;52.550;13.148;2022-07-23T02:04:32;19.53;;;11.27;;
6209;SDS011;3138;52.550;13.148;2022-07-23T02:07:01;18.13;;;9.80;;
6209;SDS011;3138;52.550;13.148;2022-07-23T02:09:28;21.53;;;11.10;;
6209;SDS011;3138;52.550;13.148;2022-07-23T02:11:55;19.93;;;10.63;;
6209;SDS011;3138;52.550;13.148;2022-07-23T02:14:23;14.63;;;10.30;;
6209;SDS011;3138;52.550;13.148;2022-07-23T02:16:50;12.80;;;10.23;;
6209;SDS011;3138;52.550;13.148;2022-07-23T02:19:17;14.80;;;9.67;;
6209;SDS011;3138;52.550;13.148;2022-07-23T02:21:44;17.23;;;9.77;;
6209;SDS011;3138;52.550;13.148;2022-07-23T02:24:11;13.20;;;10.87;;
6209;SDS011;3138;52.550;13.148;2022-07-23T02:26:37;18.83;;;10.90;;
6209;SDS011;3138;52.550;13.148;2022-07-23T02:29:04;12.03;;;9.40;;
6209;SDS011;3138;52.550;13.148;2022-07-23T02:31:33;14.07;;;9.87;;
6209;SDS011;3138;52.550;13.148;2022-07-23T02:34:00;16.83;;;9.47;;
6209;SDS011;3138;52.550;13.148;2022-07-23T02:36:27;12.87;;;10.20;;
6209;SDS011;3138;52.550;13.148;2022-07-23T02:38:54;16.33;;;10.27;;
6209;SDS011;3138;52.550;13.148;2022-07-23T02:41:21;15.30;;;9.53;;
6209;SDS011;3138;52.550;13.148;2022-07-23T02:43:48;12.13;;;8.97;;
6209;SDS011;3138;52.550;13.148;2022-07-23T02:46:15;17.63;;;9.67;;
6209;SDS011;3138;52.550;13.148;2022-07-23T02:48:44;13.30;;;8.70;;
6209;SDS011;3138;52.550;13.148;2022-07-23T02:51:11;14.80;;;9.50;;
6209;SDS011;3138;52.550;13.148;2022-07-23T02:53:37;17.93;;;9.30;;
6209;SDS011;3138;52.550;13.148;2022-07-23T02:56:04;12.53;;;8.90;;
6209;SDS011;3138;52.550;13.148;2022-07-23T02:58:31;20.03;;;8.80;;
6209;SDS011;3138;52.550;13.148;2022-07-23T03:00:58;16.77;;;8.97;;
6209;SDS011;3138;52.550;13.148;2022-07-23T03:03:24;16.30;;;10.03;;
6209;SDS011;3138;52.550;13.148;2022-07-23T03:05:52;11.47;;;7.53;;
6209;SDS011;3138;52.550;13.148;2022-07-23T03:08:19;11.70;;;7.83;;
6209;SDS011;3138;52.550;13.148;2022-07-23T03:10:46;25.97;;;8.47;;
6209;SDS011;3138;52.550;13.148;2022-07-23T03:13:13;14.60;;;7.30;;
6209;SDS011;3138;52.550;13.148;2022-07-23T03:15:39;15.53;;;7.40;;
6209;SDS011;3138;52.550;13.148;2022-07-23T03:18:06;9.60;;;7.20;;
6209;SDS011;3138;52.550;13.148;2022-07-23T03:20:33;17.37;;;7.53;;
6209;SDS011;3138;52.550;13.148;2022-07-23T03:23:01;13.37;;;7.23;;
6209;SDS011;3138;52.550;13.148;2022-07-23T03:25:28;9.63;;;6.80;;
6209;SDS011;3138;52.550;13.148;2022-07-23T03:27:54;12.70;;;7.70;;
6209;SDS011;3138;52.550;13.148;2022-07-23T03:30:21;12.53;;;8.30;;
6209;SDS011;3138;52.550;13.148;2022-07-23T03:32:48;11.70;;;7.87;;
6209;SDS011;3138;52.550;13.148;2022-07-23T03:35:15;24.23;;;7.60;;
6209;SDS011;3138;52.550;13.148;2022-07-23T03:37:41;11.60;;;6.37;;
6209;SDS011;3138;52.550;13.148;2022-07-23T03:40:10;16.00;;;6.10;;
6209;SDS011;3138;52.550;13.148;2022-07-23T03:42:37;14.03;;;7.67;;
6209;SDS011;3138;52.550;13.148;2022-07-23T03:45:06;12.67;;;6.60;;
6209;SDS011;3138;52.550;13.148;2022-07-23T03:47:33;16.20;;;5.37;;
6209;SDS011;3138;52.550;13.148;2022-07-23T03:50:00;9.70;;;6.10;;
6209;SDS011;3138;52.550;13.148;2022-07-23T03:52:27;8.60;;;6.00;;
6209;SDS011;3138;52.550;13.148;2022-07-23T03:54:54;13.90;;;6.67;;
6209;SDS011;3138;52.550;13.148;2022-07-23T03:57:22;21.37;;;5.67;;
6209;SDS011;3138;52.550;13.148;2022-07-23T03:59:48;30.97;;;6.40;;
6209;SDS011;3138;52.550;13.148;2022-07-23T04:02:15;12.73;;;6.00;;
6209;SDS011;3138;52.550;13.148;2022-07-23T04:04:42;13.50;;;5.83;;
6209;SDS011;3138;52.550;13.148;2022-07-23T04:07:09;17.00;;;7.23;;
6209;SDS011;3138;52.550;13.148;2022-07-23T04:09:35;22.40;;;6.53;;
6209;SDS011;3138;52.550;13.148;2022-07-23T04:12:02;28.87;;;7.23;;
6209;SDS011;3138;52.550;13.148;2022-07-23T04:14:31;17.93;;;5.83;;
6209;SDS011;3138;52.550;13.148;2022-07-23T04:16:58;17.27;;;5.90;;
6209;SDS011;3138;52.550;13.148;2022-07-23T04:19:25;22.17;;;5.80;;
6209;SDS011;3138;52.550;13.148;2022-07-23T04:21:51;18.43;;;6.20;;
6209;SDS011;3138;52.550;13.148;2022-07-23T04:24:18;15.57;;;6.57;;
6209;SDS011;3138;52.550;13.148;2022-07-23T04:26:45;16.53;;;7.07;;
6209;SDS011;3138;52.550;13.148;2022-07-23T04:29:12;17.23;;;7.57;;
6209;SDS011;3138;52.550;13.148;2022-07-23T04:31:40;12.57;;;6.27;;
6209;SDS011;3138;52.550;13.148;2022-07-23T04:34:06;9.43;;;5.40;;
6209;SDS011;3138;52.550;13.148;2022-07-23T04:36:33;14.03;;;6.43;;
6209;SDS011;3138;52.550;13.148;2022-07-23T04:39:00;8.97;;;6.20;;
6209;SDS011;3138;52.550;13.148;2022-07-23T04:41:27;12.00;;;6.27;;
6209;SDS011;3138;52.550;13.148;2022-07-23T04:43:53;12.40;;;7.17;;
6209;SDS011;3138;52.550;13.148;2022-07-23T04:46:20;8.30;;;6.47;;
6209;SDS011;3138;52.550;13.148;2022-07-23T04:48:48;12.40;;;6.87;;
6209;SDS011;3138;52.550;13.148;2022-07-23T04:51:15;19.03;;;6.97;;
6209;SDS011;3138;52.550;13.148;2022-07-23T04:53:42;18.43;;;7.80;;
6209;SDS011;3138;52.550;13.148;2022-07-23T04:56:08;21.03;;;7.30;;
6209;SDS011;3138;52.550;13.148;2022-07-23T04:58:35;19.17;;;8.20;;
6209;SDS011;3138;52.550;13.148;2022-07-23T05:01:02;18.63;;;7.93;;
6209;SDS011;3138;52.550;13.148;2022-07-23T05:03:29;24.27;;;7.60;;
6209;SDS011;3138;52.550;13.148;2022-07-23T05:05:57;20.40;;;7.50;;
6209;SDS011;3138;52.550;13.148;2022-07-23T05:08:24;14.50;;;7.77;;
6209;SDS011;3138;52.550;13.148;2022-07-23T05:10:51;16.90;;;7.80;;
6209;SDS011;3138;52.550;13.148;2022-07-23T05:13:18;13.03;;;6.90;;
6209;SDS011;3138;52.550;13.148;2022-07-23T05:15:45;15.43;;;4.60;;
6209;SDS011;3138;52.550;13.148;2022-07-23T05:18:12;9.40;;;5.63;;
6209;SDS011;3138;52.550;13.148;2022-07-23T05:20:39;19.57;;;5.80;;
6209;SDS011;3138;52.550;13.148;2022-07-23T05:23:07;17.67;;;5.63;;
6209;SDS011;3138;52.550;13.148;2022-07-23T05:25:35;12.60;;;6.63;;
6209;SDS011;3138;52.550;13.148;2022-07-23T05:28:02;16.30;;;6.67;;
6209;SDS011;3138;52.550;13.148;2022-07-23T05:30:29;13.27;;;7.60;;
6209;SDS011;3138;52.550;13.148;2022-07-23T05:32:55;9.30;;;6.10;;
6209;SDS011;3138;52.550;13.148;2022-07-23T05:35:22;10.43;;;6.13;;
6209;SDS011;3138;52.550;13.148;2022-07-23T05:37:49;8.83;;;5.43;;
6209;SDS011;3138;52.550;13.148;2022-07-23T05:40:19;12.70;;;5.40;;
6209;SDS011;3138;52.550;13.148;2022-07-23T05:42:45;15.37;;;6.00;;
6209;SDS011;3138;52.550;13.148;2022-07-23T05:45:12;18.70;;;5.70;;
6209;SDS011;3138;52.550;13.148;2022-07-23T05:47:40;11.00;;;5.70;;
6209;SDS011;3138;52.550;13.148;2022-07-23T05:50:10;14.73;;;5.57;;
6209;SDS011;3138;52.550;13.148;2022-07-23T05:52:37;13.13;;;6.23;;
6209;SDS011;3138;52.550;13.148;2022-07-23T05:55:05;14.80;;;5.97;;
6209;SDS011;3138;52.550;13.148;2022-07-23T05:57:33;14.23;;;5.60;;
6209;SDS011;3138;52.550;13.148;2022-07-23T06:00:00;10.83;;;6.37;;
6209;SDS011;3138;52.550;13.148;2022-07-23T06:02:27;10.97;;;7.47;;
6209;SDS011;3138;52.550;13.148;2022-07-23T06:04:54;23.40;;;7.87;;
6209;SDS011;3138;52.550;13.148;2022-07-23T06:07:21;17.83;;;7.70;;
6209;SDS011;3138;52.550;13.148;2022-07-23T06:09:48;20.83;;;7.97;;
6209;SDS011;3138;52.550;13.148;2022-07-23T06:12:15;28.70;;;6.80;;
6209;SDS011;3138;52.550;13.148;2022-07-23T06:14:43;13.43;;;5.97;;
6209;SDS011;3138;52.550;13.148;2022-07-23T06:17:09;14.20;;;5.50;;
6209;SDS011;3138;52.550;13.148;2022-07-23T06:19:36;12.97;;;5.40;;
6209;SDS011;3138;52.550;13.148;2022-07-23T06:22:03;14.50;;;6.17;;
6209;SDS011;3138;52.550;13.148;2022-07-23T06:24:30;9.70;;;4.70;;
6209;SDS011;3138;52.550;13.148;2022-07-23T06:26:56;11.90;;;5.20;;
6209;SDS011;3138;52.550;13.148;2022-07-23T06:29:23;12.37;;;5.67;;
6209;SDS011;3138;52.550;13.148;2022-07-23T06:31:51;14.13;;;4.30;;
6209;SDS011;3138;52.550;13.148;2022-07-23T06:34:18;16.60;;;5.20;;
6209;SDS011;3138;52.550;13.148;2022-07-23T06:36:45;17.43;;;4.70;;
6209;SDS011;3138;52.550;13.148;2022-07-23T06:39:12;13.40;;;4.63;;
6209;SDS011;3138;52.550;13.148;2022-07-23T06:41:38;12.17;;;5.97;;
6209;SDS011;3138;52.550;13.148;2022-07-23T06:44:05;14.47;;;5.93;;
6209;SDS011;3138;52.550;13.148;2022-07-23T06:46:32;10.07;;;5.30;;
6209;SDS011;3138;52.550;13.148;2022-07-23T06:49:00;12.90;;;5.60;;
6209;SDS011;3138;52.550;13.148;2022-07-23T06:51:29;14.40;;;6.60;;
6209;SDS011;3138;52.550;13.148;2022-07-23T06:53:55;14.20;;;7.50;;
6209;SDS011;3138;52.550;13.148;2022-07-23T06:56:23;11.20;;;6.33;;
6209;SDS011;3138;52.550;13.148;2022-07-23T06:58:50;19.33;;;7.53;;
6209;SDS011;3138;52.550;13.148;2022-07-23T07:01:17;11.13;;;6.83;;
6209;SDS011;3138;52.550;13.148;2022-07-23T07:03:43;20.43;;;8.77;;
6209;SDS011;3138;52.550;13.148;2022-07-23T07:06:12;14.87;;;9.40;;
6209;SDS011;3138;52.550;13.148;2022-07-23T07:08:40;11.20;;;7.97;;
6209;SDS011;3138;52.550;13.148;2022-07-23T07:11:08;14.57;;;8.23;;
6209;SDS011;3138;52.550;13.148;2022-07-23T07:13:35;15.33;;;8.43;;
6209;SDS011;3138;52.550;13.148;2022-07-23T07:16:01;15.13;;;7.67;;
6209;SDS011;3138;52.550;13.148;2022-07-23T07:18:28;13.30;;;7.27;;
6209;SDS011;3138;52.550;13.148;2022-07-23T07:20:56;19.90;;;7.63;;
6209;SDS011;3138;52.550;13.148;2022-07-23T07:23:24;11.20;;;8.27;;
6209;SDS011;3138;52.550;13.148;2022-07-23T07:25:51;14.23;;;7.40;;
6209;SDS011;3138;52.550;13.148;2022-07-23T07:28:17;13.80;;;6.47;;
6209;SDS011;3138;52.550;13.148;2022-07-23T07:30:44;11.60;;;7.30;;
6209;SDS011;3138;52.550;13.148;2022-07-23T07:33:11;13.80;;;7.30;;
6209;SDS011;3138;52.550;13.148;2022-07-23T07:35:38;9.03;;;7.37;;
6209;SDS011;3138;52.550;13.148;2022-07-23T07:38:04;15.83;;;6.40;;
6209;SDS011;3138;52.550;13.148;2022-07-23T07:40:32;15.77;;;7.30;;
6209;SDS011;3138;52.550;13.148;2022-07-23T07:42:59;6.73;;;5.80;;
6209;SDS011;3138;52.550;13.148;2022-07-23T07:45:26;14.80;;;5.93;;
6209;SDS011;3138;52.550;13.148;2022-07-23T07:47:53;12.70;;;6.93;;
6209;SDS011;3138;52.550;13.148;2022-07-23T07:50:20;19.87;;;7.00;;
6209;SDS011;3138;52.550;13.148;2022-07-23T07:52:47;12.80;;;6.63;;
6209;SDS011;3138;52.550;13.148;2022-07-23T07:55:14;15.53;;;6.17;;
6209;SDS011;3138;52.550;13.148;2022-07-23T07:57:43;6.10;;;5.17;;
6209;SDS011;3138;52.550;13.148;2022-07-23T08:00:10;10.43;;;5.23;;
6209;SDS011;3138;52.550;13.148;2022-07-23T08:02:41;14.10;;;5.30;;
6209;SDS011;3138;52.550;13.148;2022-07-23T08:05:09;11.93;;;4.53;;
6209;SDS011;3138;52.550;13.148;2022-07-23T08:07:36;14.40;;;4.57;;
6209;SDS011;3138;52.550;13.148;2022-07-23T08:10:04;7.77;;;4.30;;
6209;SDS011;3138;52.550;13.148;2022-07-23T08:12:44;11.13;;;3.93;;
6209;SDS011;3138;52.550;13.148;2022-07-23T08:15:13;8.33;;;3.73;;
6209;SDS011;3138;52.550;13.148;2022-07-23T08:17:41;8.70;;;4.13;;
6209;SDS011;3138;52.550;13.148;2022-07-23T08:20:09;9.60;;;3.47;;
6209;SDS011;3138;52.550;13.148;2022-07-23T08:22:43;6.43;;;3.13;;
6209;SDS011;3138;52.550;13.148;2022-07-23T08:25:12;9.87;;;3.83;;
6209;SDS011;3138;52.550;13.148;2022-07-23T08:27:39;19.47;;;4.33;;
6209;SDS011;3138;52.550;13.148;2022-07-23T08:30:08;10.33;;;3.80;;
6209;SDS011;3138;52.550;13.148;2022-07-23T08:35:18;6.60;;;3.37;;
6209;SDS011;3138;52.550;13.148;2022-07-23T08:37:48;9.20;;;4.20;;
6209;SDS011;3138;52.550;13.148;2022-07-23T08:40:15;11.70;;;4.80;;
6209;SDS011;3138;52.550;13.148;2022-07-23T08:42:42;10.30;;;3.50;;
6209;SDS011;3138;52.550;13.148;2022-07-23T08:45:11;15.60;;;4.83;;
6209;SDS011;3138;52.550;13.148;2022-07-23T08:47:41;14.00;;;4.80;;
6209;SDS011;3138;52.550;13.148;2022-07-23T08:50:10;13.00;;;4.73;;
6209;SDS011;3138;52.550;13.148;2022-07-23T08:52:37;14.40;;;5.07;;
6209;SDS011;3138;52.550;13.148;2022-07-23T08:55:06;8.30;;;3.93;;
6209;SDS011;3138;52.550;13.148;2022-07-23T08:57:34;14.30;;;5.07;;
6209;SDS011;3138;52.550;13.148;2022-07-23T09:00:00;8.60;;;4.30;;
6209;SDS011;3138;52.550;13.148;2022-07-23T09:02:29;6.33;;;3.63;;
6209;SDS011;3138;52.550;13.148;2022-07-23T09:04:55;12.73;;;4.73;;
6209;SDS011;3138;52.550;13.148;2022-07-23T09:07:22;6.40;;;3.70;;
6209;SDS011;3138;52.550;13.148;2022-07-23T09:09:52;13.87;;;4.37;;
6209;SDS011;3138;52.550;13.148;2022-07-23T09:12:31;9.87;;;4.20;;
6209;SDS011;3138;52.550;13.148;2022-07-23T09:15:03;18.13;;;4.43;;
6209;SDS011;3138;52.550;13.148;2022-07-23T09:17:36;17.57;;;5.30;;
6209;SDS011;3138;52.550;13.148;2022-07-23T09:20:08;13.30;;;3.97;;
6209;SDS011;3138;52.550;13.148;2022-07-23T09:22:36;27.20;;;5.67;;
6209;SDS011;3138;52.550;13.148;2022-07-23T09:25:04;20.00;;;8.73;;
6209;SDS011;3138;52.550;13.148;2022-07-23T09:27:51;14.30;;;3.80;;
6209;SDS011;3138;52.550;13.148;2022-07-23T09:30:19;6.70;;;3.93;;
6209;SDS011;3138;52.550;13.148;2022-07-23T09:38:21;25.10;;;4.10;;
6209;SDS011;3138;52.550;13.148;2022-07-23T09:41:04;10.60;;;4.40;;
6209;SDS011;3138;52.550;13.148;2022-07-23T09:43:32;11.80;;;4.60;;
6209;SDS011;3138;52.550;13.148;2022-07-23T09:48:45;11.00;;;4.70;;
6209;SDS011;3138;52.550;13.148;2022-07-23T09:51:12;10.10;;;4.60;;
6209;SDS011;3138;52.550;13.148;2022-07-23T09:53:40;6.47;;;4.43;;
6209;SDS011;3138;52.550;13.148;2022-07-23T09:56:07;5.93;;;4.20;;
6209;SDS011;3138;52.550;13.148;2022-07-23T09:58:35;14.23;;;4.53;;
6209;SDS011;3138;52.550;13.148;2022-07-23T10:01:09;14.50;;;4.80;;
6209;SDS011;3138;52.550;13.148;2022-07-23T10:03:38;6.43;;;3.87;;
6209;SDS011;3138;52.550;13.148;2022-07-23T10:06:08;12.97;;;4.23;;
6209;SDS011;3138;52.550;13.148;2022-07-23T10:08:36;17.10;;;4.33;;
6209;SDS011;3138;52.550;13.148;2022-07-23T10:11:07;8.43;;;3.47;;
6209;SDS011;3138;52.550;13.148;2022-07-23T10:13:35;10.10;;;4.70;;
6209;SDS011;3138;52.550;13.148;2022-07-23T10:16:22;7.83;;;3.33;;
6209;SDS011;3138;52.550;13.148;2022-07-23T10:18:49;10.23;;;5.40;;
6209;SDS011;3138;52.550;13.148;2022-07-23T10:21:18;10.23;;;4.03;;
6209;SDS011;3138;52.550;13.148;2022-07-23T10:23:57;11.57;;;4.03;;
6209;SDS011;3138;52.550;13.148;2022-07-23T10:26:31;10.27;;;4.10;;
6209;SDS011;3138;52.550;13.148;2022-07-23T10:29:10;11.13;;;4.23;;
6209;SDS011;3138;52.550;13.148;2022-07-23T10:31:48;11.53;;;5.07;;
6209;SDS011;3138;52.550;13.148;2022-07-23T10:34:23;9.43;;;4.33;;
6209;SDS011;3138;52.550;13.148;2022-07-23T10:36:59;7.37;;;4.13;;
6209;SDS011;3138;52.550;13.148;2022-07-23T10:39:32;11.03;;;4.17;;
6209;SDS011;3138;52.550;13.148;2022-07-23T10:42:07;9.33;;;4.40;;
6209;SDS011;3138;52.550;13.148;2022-07-23T10:44:39;6.50;;;3.90;;
6209;SDS011;3138;52.550;13.148;2022-07-23T10:47:08;7.57;;;3.70;;
6209;SDS011;3138;52.550;13.148;2022-07-23T10:49:45;14.07;;;4.50;;
6209;SDS011;3138;52.550;13.148;2022-07-23T10:52:17;8.30;;;3.80;;
6209;SDS011;3138;52.550;13.148;2022-07-23T10:54:49;13.60;;;3.90;;
6209;SDS011;3138;52.550;13.148;2022-07-23T10:57:18;10.67;;;4.67;;
6209;SDS011;3138;52.550;13.148;2022-07-23T11:02:47;9.17;;;4.13;;
6209;SDS011;3138;52.550;13.148;2022-07-23T11:05:16;3.90;;;3.30;;
6209;SDS011;3138;52.550;13.148;2022-07-23T11:10:40;7.70;;;3.83;;
6209;SDS011;3138;52.550;13.148;2022-07-23T11:18:54;11.23;;;3.90;;
6209;SDS011;3138;52.550;13.148;2022-07-23T11:21:40;6.23;;;3.07;;
6209;SDS011;3138;52.550;13.148;2022-07-23T11:24:17;12.67;;;3.90;;
6209;SDS011;3138;52.550;13.148;2022-07-23T11:26:58;7.33;;;3.80;;
6209;SDS011;3138;52.550;13.148;2022-07-23T11:29:42;7.87;;;4.57;;
6209;SDS011;3138;52.550;13.148;2022-07-23T11:32:24;5.67;;;3.40;;
6209;SDS011;3138;52.550;13.148;2022-07-23T11:34:54;9.00;;;3.93;;
6209;SDS011;3138;52.550;13.148;2022-07-23T11:40:12;17.90;;;3.40;;
6209;SDS011;3138;52.550;13.148;2022-07-23T11:42:50;9.67;;;4.20;;
6209;SDS011;3138;52.550;13.148;2022-07-23T11:45:18;4.60;;;4.10;;
6209;SDS011;3138;52.550;13.148;2022-07-23T11:47:45;10.87;;;3.67;;
6209;SDS011;3138;52.550;13.148;2022-07-23T11:50:12;12.50;;;3.60;;
6209;SDS011;3138;52.550;13.148;2022-07-23T11:52:39;7.80;;;4.47;;
6209;SDS011;3138;52.550;13.148;2022-07-23T11:55:07;4.73;;;3.60;;
6209;SDS011;3138;52.550;13.148;2022-07-23T11:57:36;3.63;;;3.30;;
6209;SDS011;3138;52.550;13.148;2022-07-23T12:00:05;10.60;;;4.10;;
6209;SDS011;3138;52.550;13.148;2022-07-23T12:02:35;9.97;;;4.47;;
6209;SDS011;3138;52.550;13.148;2022-07-23T12:05:03;8.23;;;4.67;;
6209;SDS011;3138;52.550;13.148;2022-07-23T12:07:31;6.90;;;3.70;;
6209;SDS011;3138;52.550;13.148;2022-07-23T12:10:00;8.40;;;3.60;;
6209;SDS011;3138;52.550;13.148;2022-07-23T12:12:35;10.27;;;4.17;;
6209;SDS011;3138;52.550;13.148;2022-07-23T12:15:04;20.90;;;3.63;;
6209;SDS011;3138;52.550;13.148;2022-07-23T12:17:33;10.50;;;3.97;;
6209;SDS011;3138;52.550;13.148;2022-07-23T12:20:01;9.73;;;3.67;;
6209;SDS011;3138;52.550;13.148;2022-07-23T12:22:33;7.80;;;4.33;;
6209;SDS011;3138;52.550;13.148;2022-07-23T12:25:02;10.33;;;4.70;;
6209;SDS011;3138;52.550;13.148;2022-07-23T12:27:31;12.47;;;4.23;;
6209;SDS011;3138;52.550;13.148;2022-07-23T12:30:00;11.50;;;3.73;;
6209;SDS011;3138;52.550;13.148;2022-07-23T12:32:43;10.90;;;3.97;;
6209;SDS011;3138;52.550;13.148;2022-07-23T12:35:11;12.27;;;3.80;;
6209;SDS011;3138;52.550;13.148;2022-07-23T12:37:39;7.70;;;3.80;;
6209;SDS011;3138;52.550;13.148;2022-07-23T12:40:18;10.80;;;3.93;;
6209;SDS011;3138;52.550;13.148;2022-07-23T12:42:47;9.80;;;2.90;;
6209;SDS011;3138;52.550;13.148;2022-07-23T12:45:15;8.40;;;3.60;;
6209;SDS011;3138;52.550;13.148;2022-07-23T12:47:59;8.67;;;3.13;;
6209;SDS011;3138;52.550;13.148;2022-07-23T12:53:21;6.70;;;4.00;;
6209;SDS011;3138;52.550;13.148;2022-07-23T12:55:50;6.63;;;3.43;;
6209;SDS011;3138;52.550;13.148;2022-07-23T12:58:23;16.53;;;3.30;;
6209;SDS011;3138;52.550;13.148;2022-07-23T13:00:58;5.37;;;3.57;;
6209;SDS011;3138;52.550;13.148;2022-07-23T13:03:28;3.33;;;3.03;;
6209;SDS011;3138;52.550;13.148;2022-07-23T13:06:00;10.80;;;3.70;;
6209;SDS011;3138;52.550;13.148;2022-07-23T13:08:29;8.20;;;2.80;;
6209;SDS011;3138;52.550;13.148;2022-07-23T13:10:57;9.40;;;3.10;;
6209;SDS011;3138;52.550;13.148;2022-07-23T13:13:25;6.10;;;3.50;;
6209;SDS011;3138;52.550;13.148;2022-07-23T13:15:54;8.40;;;3.17;;
6209;SDS011;3138;52.550;13.148;2022-07-23T13:18:22;3.87;;;2.77;;
6209;SDS011;3138;52.550;13.148;2022-07-23T13:20:49;10.27;;;3.50;;
6209;SDS011;3138;52.550;13.148;2022-07-23T13:23:16;6.50;;;3.13;;
6209;SDS011;3138;52.550;13.148;2022-07-23T13:25:43;6.23;;;3.07;;
6209;SDS011;3138;52.550;13.148;2022-07-23T13:28:11;2.50;;;2.30;;
6209;SDS011;3138;52.550;13.148;2022-07-23T13:30:38;9.83;;;2.63;;
6209;SDS011;3138;52.550;13.148;2022-07-23T13:33:06;8.73;;;3.43;;
6209;SDS011;3138;52.550;13.148;2022-07-23T13:35:35;10.67;;;2.60;;
6209;SDS011;3138;52.550;13.148;2022-07-23T13:38:02;5.57;;;2.33;;
6209;SDS011;3138;52.550;13.148;2022-07-23T13:40:29;6.33;;;2.93;;
6209;SDS011;3138;52.550;13.148;2022-07-23T13:42:56;3.67;;;2.70;;
6209;SDS011;3138;52.550;13.148;2022-07-23T13:45:23;27.73;;;2.80;;
6209;SDS011;3138;52.550;13.148;2022-07-23T13:47:50;5.80;;;2.53;;
6209;SDS011;3138;52.550;13.148;2022-07-23T13:50:16;4.23;;;2.50;;
6209;SDS011;3138;52.550;13.148;2022-07-23T13:52:45;5.50;;;2.43;;
6209;SDS011;3138;52.550;13.148;2022-07-23T13:55:11;7.33;;;2.30;;
6209;SDS011;3138;52.550;13.148;2022-07-23T13:57:38;7.50;;;2.30;;
6209;SDS011;3138;52.550;13.148;2022-07-23T14:00:06;4.97;;;2.47;;
6209;SDS011;3138;52.550;13.148;2022-07-23T14:02:35;1.80;;;1.57;;
6209;SDS011;3138;52.550;13.148;2022-07-23T14:05:02;3.37;;;1.60;;
6209;SDS011;3138;52.550;13.148;2022-07-23T14:07:30;5.40;;;2.50;;
6209;SDS011;3138;52.550;13.148;2022-07-23T14:09:59;5.07;;;2.47;;
6209;SDS011;3138;52.550;13.148;2022-07-23T14:12:26;4.63;;;2.43;;
6209;SDS011;3138;52.550;13.148;2022-07-23T14:14:53;2.73;;;1.97;;
6209;SDS011;3138;52.550;13.148;2022-07-23T14:19:47;3.23;;;2.00;;
6209;SDS011;3138;52.550;13.148;2022-07-23T14:22:14;3.93;;;2.10;;
6209;SDS011;3138;52.550;13.148;2022-07-23T14:24:41;8.47;;;2.60;;
6209;SDS011;3138;52.550;13.148;2022-07-23T14:27:09;3.97;;;1.90;;
6209;SDS011;3138;52.550;13.148;2022-07-23T14:29:36;4.47;;;2.60;;
6209;SDS011;3138;52.550;13.148;2022-07-23T14:32:03;5.97;;;2.50;;
6209;SDS011;3138;52.550;13.148;2022-07-23T14:34:30;5.57;;;2.13;;
6209;SDS011;3138;52.550;13.148;2022-07-23T14:36:57;11.63;;;2.30;;
6209;SDS011;3138;52.550;13.148;2022-07-23T14:39:24;7.90;;;2.80;;
6209;SDS011;3138;52.550;13.148;2022-07-23T14:41:51;3.70;;;2.80;;
6209;SDS011;3138;52.550;13.148;2022-07-23T14:44:20;4.67;;;2.37;;
6209;SDS011;3138;52.550;13.148;2022-07-23T14:46:46;6.07;;;1.80;;
6209;SDS011;3138;52.550;13.148;2022-07-23T14:49:13;4.90;;;1.93;;
6209;SDS011;3138;52.550;13.148;2022-07-23T14:51:40;4.40;;;2.07;;
6209;SDS011;3138;52.550;13.148;2022-07-23T14:54:08;1.67;;;1.57;;
6209;SDS011;3138;52.550;13.148;2022-07-23T14:56:35;7.50;;;1.63;;
6209;SDS011;3138;52.550;13.148;2022-07-23T14:59:02;6.57;;;2.20;;
6209;SDS011;3138;52.550;13.148;2022-07-23T15:01:30;15.07;;;1.80;;
6209;SDS011;3138;52.550;13.148;2022-07-23T15:03:57;1.57;;;1.47;;
6209;SDS011;3138;52.550;13.148;2022-07-23T15:06:24;4.23;;;2.20;;
6209;SDS011;3138;52.550;13.148;2022-07-23T15:08:51;4.10;;;2.10;;
6209;SDS011;3138;52.550;13.148;2022-07-23T15:11:18;6.03;;;2.33;;
6209;SDS011;3138;52.550;13.148;2022-07-23T15:13:45;3.30;;;2.13;;
6209;SDS011;3138;52.550;13.148;2022-07-23T15:16:12;5.17;;;2.03;;
6209;SDS011;3138;52.550;13.148;2022-07-23T15:18:40;8.70;;;1.90;;
6209;SDS011;3138;52.550;13.148;2022-07-23T15:21:07;1.30;;;1.27;;
6209;SDS011;3138;52.550;13.148;2022-07-23T15:23:33;2.50;;;1.77;;
6209;SDS011;3138;52.550;13.148;2022-07-23T15:26:01;5.90;;;2.10;;
6209;SDS011;3138;52.550;13.148;2022-07-23T15:28:28;2.60;;;1.20;;